createdAt,value
2019-02-24T00:00:51.901Z,-3
2019-02-24T00:05:48.705Z,-3.1
2019-02-24T00:10:45.487Z,-3.1
2019-02-24T00:15:42.539Z,-3
2019-02-24T00:20:39.220Z,-3
2019-02-24T00:25:36.023Z,-3.2
2019-02-24T00:30:32.330Z,-3.2
2019-02-24T00:35:29.418Z,-3.2
2019-02-24T00:40:26.075Z,-3.4
2019-02-24T00:45:23.068Z,-3.2
2019-02-24T00:50:19.880Z,-3.3
2019-02-24T00:55:14.167Z,-3.3
2019-02-24T01:00:11.208Z,-3.2
2019-02-24T01:05:08.469Z,-2.7
2019-02-24T01:10:05.452Z,-3.2
2019-02-24T01:15:02.137Z,-3.2
2019-02-24T01:19:59.107Z,-3.4
2019-02-24T01:24:59.604Z,-3.5
2019-02-24T01:29:55.682Z,-3.4
2019-02-24T01:34:52.454Z,-3.4
2019-02-24T01:39:49.298Z,-3.6
2019-02-24T01:44:46.304Z,-3.6
2019-02-24T01:49:43.100Z,-3.6
2019-02-24T01:54:40.095Z,-3.5
2019-02-24T01:59:36.939Z,-3.5
2019-02-24T02:04:33.529Z,-3.5
2019-02-24T02:09:30.542Z,-3.5
2019-02-24T02:19:23.616Z,-3.5
2019-02-24T02:24:20.352Z,-3.5
2019-02-24T02:29:17.031Z,-3.5
2019-02-24T02:34:13.956Z,-3.5
2019-02-24T02:39:11.133Z,-3.5
2019-02-24T02:44:07.665Z,-3.4
2019-02-24T02:49:04.723Z,-3.5
2019-02-24T02:54:01.568Z,-3.7
2019-02-24T02:58:58.475Z,-3.5
2019-02-24T03:03:55.443Z,-3.5
2019-02-24T03:08:52.065Z,-3.5
2019-02-24T03:13:48.882Z,-3.6
2019-02-24T03:18:45.999Z,-3.4
2019-02-24T03:23:43.061Z,-3.3
2019-02-24T03:28:39.945Z,-2.8
2019-02-24T03:33:36.707Z,-3.4
2019-02-24T03:38:33.379Z,-3.4
2019-02-24T03:43:30.123Z,-3.3
2019-02-24T03:48:26.682Z,-3.2
2019-02-24T03:53:23.691Z,-3.3
2019-02-24T03:58:20.480Z,-3.3
2019-02-24T04:03:17.350Z,-3.3
2019-02-24T04:08:13.803Z,-3.4
2019-02-24T04:13:10.605Z,-3.3
2019-02-24T04:18:07.568Z,-3.3
2019-02-24T04:23:04.530Z,-3.3
2019-02-24T04:28:00.694Z,-3.4
2019-02-24T04:32:57.663Z,-3.5
2019-02-24T04:37:54.547Z,-3.7
2019-02-24T04:42:51.404Z,-3.4
2019-02-24T04:47:48.438Z,-3.4
2019-02-24T04:52:45.371Z,-3.3
2019-02-24T04:57:42.225Z,-3.3
2019-02-24T05:02:38.963Z,-3.5
2019-02-24T05:07:35.224Z,-3.7
2019-02-24T05:12:31.963Z,-3.8
2019-02-24T05:17:28.733Z,-3.9
2019-02-24T05:22:25.090Z,-4
2019-02-24T05:27:21.913Z,-4.1
2019-02-24T05:32:18.439Z,-4.2
2019-02-24T05:37:15.154Z,-4.2
2019-02-24T05:42:11.964Z,-4.3
2019-02-24T05:47:08.957Z,-4.2
2019-02-24T05:52:05.663Z,-4.2
2019-02-24T05:57:02.342Z,-4.2
2019-02-24T06:01:59.158Z,-4.1
2019-02-24T06:06:55.582Z,-4
2019-02-24T06:11:52.015Z,-4.1
2019-02-24T06:16:49.086Z,-4.1
2019-02-24T06:21:46.076Z,-4.1
2019-02-24T06:31:39.704Z,-3.8
2019-02-24T06:36:36.779Z,-3.7
2019-02-24T06:41:33.475Z,-3.7
2019-02-24T06:46:30.605Z,-3.6
2019-02-24T06:51:27.329Z,-3.6
2019-02-24T06:56:23.745Z,-3.5
2019-02-24T07:01:20.555Z,-3.5
2019-02-24T07:06:17.127Z,-3.9
2019-02-24T07:11:13.885Z,-3.5
2019-02-24T07:16:10.849Z,-3.3
2019-02-24T07:21:07.882Z,-3.3
2019-02-24T07:26:04.725Z,-3.3
2019-02-24T07:31:01.377Z,-3.2
2019-02-24T07:35:57.575Z,-3.2
2019-02-24T07:40:54.269Z,-3.1
2019-02-24T07:45:51.143Z,-3.2
2019-02-24T07:50:48.111Z,-2.9
2019-02-24T07:55:44.980Z,-2.8
2019-02-24T08:00:41.664Z,-2.7
2019-02-24T08:05:38.631Z,-2.6
2019-02-24T08:10:35.330Z,-2.6
2019-02-24T08:15:32.436Z,-2.5
2019-02-24T08:20:29.323Z,-1.9
2019-02-24T08:25:25.849Z,-2.4
2019-02-24T08:30:22.727Z,-2.6
2019-02-24T08:35:19.553Z,-2.3
2019-02-24T08:40:16.137Z,-2.2
2019-02-24T08:45:12.992Z,-2.1
2019-02-24T08:50:09.874Z,-2
2019-02-24T08:55:06.772Z,-2
2019-02-24T09:00:03.765Z,-1.9
2019-02-24T09:05:00.289Z,-1.9
2019-02-24T09:09:57.210Z,-2
2019-02-24T09:14:54.004Z,-1.8
2019-02-24T09:19:50.960Z,-1.7
2019-02-24T09:24:47.475Z,-1.6
2019-02-24T09:29:44.422Z,-1.5
2019-02-24T09:34:41.495Z,-1.5
2019-02-24T09:39:38.214Z,-1.4
2019-02-24T09:44:35.295Z,-0.8
2019-02-24T09:49:32.362Z,-1.3
2019-02-24T09:54:29.444Z,-1.1
2019-02-24T09:59:26.495Z,-1
2019-02-24T10:04:23.534Z,-0.9
2019-02-24T10:09:20.437Z,-0.7
2019-02-24T10:14:17.300Z,-0.5
2019-02-24T10:19:14.317Z,-0.3
2019-02-24T10:24:11.668Z,0.2
2019-02-24T10:29:08.591Z,0.3
2019-02-24T10:34:07.497Z,0.3
2019-02-24T10:39:02.381Z,0.6
2019-02-24T10:43:59.712Z,0.9
2019-02-24T10:49:03.048Z,0.7
2019-02-24T10:53:53.413Z,0.7
2019-02-24T10:58:49.639Z,0.8
2019-02-24T11:03:46.854Z,0.8
2019-02-24T11:08:43.611Z,1.4
2019-02-24T11:13:40.946Z,1.5
2019-02-24T11:18:37.915Z,1
2019-02-24T11:23:35.128Z,1.7
2019-02-24T11:28:31.948Z,1.7
2019-02-24T11:33:29.081Z,1.8
2019-02-24T11:38:26.068Z,1.9
2019-02-24T11:43:23.171Z,1.9
2019-02-24T11:48:20.192Z,1.8
2019-02-24T11:53:17.180Z,1.4
2019-02-24T11:58:13.615Z,1.7
2019-02-24T12:03:10.728Z,1.8
2019-02-24T12:08:07.449Z,1.8
2019-02-24T12:13:04.306Z,1.8
2019-02-24T12:18:01.151Z,1.8
2019-02-24T12:22:58.073Z,1.8
2019-02-24T12:27:55.269Z,1.5
2019-02-24T12:32:52.184Z,1.7
2019-02-24T12:37:49.144Z,1.7
2019-02-24T12:42:46.148Z,1.7
2019-02-24T12:47:43.226Z,1.6
2019-02-24T12:52:39.793Z,1.6
2019-02-24T12:57:36.498Z,1.5
2019-02-24T13:02:33.012Z,1.4
2019-02-24T13:07:29.760Z,1.3
2019-02-24T13:12:26.750Z,1.2
2019-02-24T13:17:23.288Z,0.3
2019-02-24T13:22:20.206Z,1
2019-02-24T13:27:17.254Z,0.6
2019-02-24T13:32:14.981Z,1
2019-02-24T13:37:11.353Z,0.5
2019-02-24T13:42:08.313Z,-0.1
2019-02-24T13:47:05.082Z,0.3
2019-02-24T13:52:02.025Z,0.8
2019-02-24T13:56:59.073Z,0.2
2019-02-24T14:01:55.592Z,0.2
2019-02-24T14:06:52.473Z,0.2
2019-02-24T14:11:49.436Z,0.1
2019-02-24T14:16:46.241Z,0.2
2019-02-24T14:21:42.492Z,0.1
2019-02-24T14:26:39.486Z,0.1
2019-02-24T14:31:36.244Z,0.1
2019-02-24T14:36:33.182Z,0
2019-02-24T14:41:30.186Z,-0.1
2019-02-24T14:46:26.830Z,-0.1
2019-02-24T14:51:23.734Z,-0.1
2019-02-24T14:56:20.636Z,-0.2
2019-02-24T15:01:17.659Z,-0.3
2019-02-24T15:06:14.503Z,-0.4
2019-02-24T15:11:11.430Z,-0.3
2019-02-24T15:16:08.181Z,-0.3
2019-02-24T15:21:05.386Z,-0.2
2019-02-24T15:26:02.342Z,-0.3
2019-02-24T15:30:59.125Z,-0.4
2019-02-24T15:35:56.381Z,0.1
2019-02-24T15:40:53.164Z,-0.5
2019-02-24T15:45:49.946Z,-0.5
2019-02-24T15:50:46.989Z,-0.6
2019-02-24T15:55:43.660Z,-0.6
2019-02-24T16:00:40.502Z,-0.6
2019-02-24T16:05:37.408Z,-0.6
2019-02-24T16:10:34.304Z,-0.8
2019-02-24T16:15:31.258Z,-0.7
2019-02-24T16:20:27.767Z,-5.9
2019-02-24T16:25:24.434Z,-0.8
2019-02-24T16:30:21.330Z,-0.9
2019-02-24T16:35:18.241Z,-0.8
2019-02-24T16:40:15.262Z,-0.3
2019-02-24T16:45:11.811Z,-0.9
2019-02-24T16:50:08.609Z,-1
2019-02-24T16:55:05.561Z,-1.1
2019-02-24T17:00:02.404Z,-1.2
2019-02-24T17:04:59.155Z,-1.3
2019-02-24T17:09:55.992Z,-1.2
2019-02-24T17:14:52.785Z,-1.3
2019-02-24T17:19:49.589Z,-1.4
2019-02-24T17:24:46.585Z,-1.6
2019-02-24T17:29:43.015Z,-1.5
2019-02-24T17:34:40.040Z,-1.6
2019-02-24T17:39:36.897Z,-0.9
2019-02-24T17:44:33.794Z,-1.5
2019-02-24T17:49:30.803Z,-1.5
2019-02-24T17:54:27.733Z,-1.6
2019-02-24T17:59:24.937Z,-1.6
2019-02-24T18:04:23.702Z,-1
2019-02-24T18:09:20.069Z,-1.5
2019-02-24T18:14:17.125Z,-1.6
2019-02-24T18:19:13.727Z,-1.7
2019-02-24T18:24:11.114Z,-1.2
2019-02-24T18:29:07.943Z,-1.7
2019-02-24T18:34:05.080Z,-1.6
2019-02-24T18:39:02.021Z,-1.6
2019-02-24T18:43:58.903Z,-1.7
2019-02-24T18:48:55.874Z,-1.6
2019-02-24T18:53:52.814Z,-1.9
2019-02-24T18:58:49.491Z,-1.7
2019-02-24T19:03:46.184Z,-1.6
2019-02-24T19:08:42.782Z,-1.6
2019-02-24T19:13:40.284Z,-1
2019-02-24T19:18:36.987Z,-1.5
2019-02-24T19:23:33.968Z,-1.6
2019-02-24T19:28:31.016Z,-1.5
2019-02-24T19:33:27.959Z,-1.4
2019-02-24T19:38:24.707Z,-1.5
2019-02-24T19:43:21.295Z,-1.4
2019-02-24T19:48:18.132Z,-1.4
2019-02-24T19:53:14.614Z,-1.9
2019-02-24T19:58:10.534Z,-1.5
2019-02-24T20:03:07.137Z,-1.5
2019-02-24T20:08:03.967Z,-1.4
2019-02-24T20:13:00.908Z,-1.5
2019-02-24T20:17:57.645Z,-2.3
2019-02-24T20:22:54.478Z,-1.6
2019-02-24T20:27:51.974Z,-1.6
2019-02-24T20:32:48.503Z,-1.6
2019-02-24T20:37:45.417Z,-1.5
2019-02-24T20:42:42.393Z,-1.5
2019-02-24T20:47:39.176Z,-1.5
2019-02-24T20:52:35.810Z,-1.6
2019-02-24T20:57:32.821Z,-1.5
2019-02-24T21:02:29.995Z,-0.9
2019-02-24T21:07:25.889Z,-1.4
2019-02-24T21:12:23.034Z,-1.4
2019-02-24T21:17:19.805Z,-1.5
2019-02-24T21:22:16.709Z,-1.5
2019-02-24T21:27:13.783Z,-2
2019-02-24T21:32:10.834Z,-1.6
2019-02-24T21:37:07.472Z,-1.6
2019-02-24T21:42:03.987Z,-1.5
2019-02-24T21:47:00.900Z,-1.5
2019-02-24T21:51:57.472Z,-1.5
2019-02-24T21:56:54.303Z,-1.4
2019-02-24T22:01:51.242Z,-1.5
2019-02-24T22:06:48.076Z,-1.5
2019-02-24T22:11:45.075Z,-1.5
2019-02-24T22:16:41.652Z,-1.5
2019-02-24T22:21:38.653Z,-1.5
2019-02-24T22:26:35.564Z,-1.6
2019-02-24T22:31:32.598Z,-1.7
2019-02-24T22:36:29.470Z,-1.1
2019-02-24T22:41:26.164Z,-1.8
2019-02-24T22:46:22.962Z,-7.1
2019-02-24T22:51:20.002Z,-1.8
2019-02-24T22:56:16.843Z,-1.8
2019-02-24T23:01:13.764Z,-1.8
2019-02-24T23:06:10.391Z,-1.9
2019-02-24T23:11:07.014Z,-1.9
2019-02-24T23:16:03.882Z,-1.9
2019-02-24T23:21:00.971Z,-2
2019-02-24T23:25:57.954Z,-1.9
2019-02-24T23:30:54.926Z,-2
2019-02-24T23:35:51.943Z,-2
2019-02-24T23:40:49.046Z,-2.3
2019-02-24T23:45:45.787Z,-2
2019-02-24T23:50:42.764Z,-2
2019-02-24T23:55:40.077Z,-2.8
